createdAt,value
2022-11-09T00:00:24.625Z,999.8
2022-11-09T00:01:28.215Z,999.9
2022-11-09T00:02:31.639Z,999.9
2022-11-09T00:03:34.675Z,999.9
2022-11-09T00:04:38.125Z,999.9
2022-11-09T00:05:40.719Z,1000
2022-11-09T00:06:43.847Z,999.9
2022-11-09T00:07:47.116Z,1000.1
2022-11-09T00:08:50.307Z,1000
2022-11-09T00:09:53.718Z,1000
2022-11-09T00:10:56.653Z,999.9
2022-11-09T00:11:59.930Z,999.9
2022-11-09T00:13:04.309Z,999.9
2022-11-09T00:14:07.407Z,1000
2022-11-09T00:15:10.643Z,1000
2022-11-09T00:16:13.445Z,1000
2022-11-09T00:17:16.190Z,1000
2022-11-09T00:18:19.192Z,1000
2022-11-09T00:19:22.833Z,1000
2022-11-09T00:20:26.120Z,999.9
2022-11-09T00:21:29.340Z,999.9
2022-11-09T00:22:32.244Z,999.9
2022-11-09T00:23:35.042Z,999.9
2022-11-09T00:24:37.834Z,999.9
2022-11-09T00:25:40.928Z,999.9
2022-11-09T00:26:44.404Z,999.9
2022-11-09T00:27:47.660Z,999.9
2022-11-09T00:28:50.850Z,999.9
2022-11-09T00:29:53.450Z,999.9
2022-11-09T00:30:56.749Z,999.8
2022-11-09T00:31:58.930Z,999.8
2022-11-09T00:33:01.946Z,999.8
2022-11-09T00:34:04.759Z,999.8
2022-11-09T00:35:07.095Z,999.8
2022-11-09T00:36:10.290Z,999.8
2022-11-09T00:37:12.997Z,999.9
2022-11-09T00:38:16.375Z,999.9
2022-11-09T00:39:19.242Z,999.8
2022-11-09T00:40:22.043Z,999.9
2022-11-09T00:41:25.411Z,999.9
2022-11-09T00:42:28.238Z,999.8
2022-11-09T00:43:31.518Z,999.8
2022-11-09T00:44:36.117Z,999.8
2022-11-09T00:45:39.570Z,999.7
2022-11-09T00:46:42.389Z,999.8
2022-11-09T00:47:45.271Z,999.8
2022-11-09T00:48:48.090Z,999.7
2022-11-09T00:49:51.193Z,999.8
2022-11-09T00:50:54.219Z,999.7
2022-11-09T00:51:57.063Z,999.7
2022-11-09T00:53:00.252Z,999.7
2022-11-09T00:54:03.614Z,999.8
2022-11-09T00:55:06.405Z,999.7
2022-11-09T00:56:09.517Z,999.7
2022-11-09T00:57:12.813Z,999.7
2022-11-09T00:58:16.262Z,999.7
2022-11-09T00:59:19.171Z,999.7
2022-11-09T01:00:22.705Z,999.7
2022-11-09T01:01:25.718Z,999.7
2022-11-09T01:02:29.293Z,999.7
2022-11-09T01:03:32.299Z,999.6
2022-11-09T01:04:34.760Z,999.7
2022-11-09T01:05:37.549Z,999.7
2022-11-09T01:06:40.999Z,999.7
2022-11-09T01:07:44.279Z,999.6
2022-11-09T01:08:47.586Z,999.6
2022-11-09T01:09:50.322Z,999.6
2022-11-09T01:10:53.115Z,999.6
2022-11-09T01:11:56.827Z,999.6
2022-11-09T01:12:59.732Z,999.5
2022-11-09T01:14:02.297Z,999.6
2022-11-09T01:15:05.014Z,999.6
2022-11-09T01:16:08.777Z,999.6
2022-11-09T01:17:12.510Z,999.6
2022-11-09T01:18:15.297Z,999.7
2022-11-09T01:19:17.734Z,999.6
2022-11-09T01:20:20.347Z,999.6
2022-11-09T01:21:23.337Z,999.6
2022-11-09T01:22:26.710Z,999.6
2022-11-09T01:23:29.823Z,999.6
2022-11-09T01:24:33.484Z,999.6
2022-11-09T01:25:36.650Z,999.6
2022-11-09T01:26:38.875Z,999.6
2022-11-09T01:27:42.024Z,999.5
2022-11-09T01:28:45.045Z,999.5
2022-11-09T01:29:48.522Z,999.5
2022-11-09T01:30:51.391Z,999.5
2022-11-09T01:31:55.169Z,999.5
2022-11-09T01:32:57.691Z,999.5
2022-11-09T01:34:01.107Z,999.5
2022-11-09T01:35:03.816Z,999.5
2022-11-09T01:36:07.282Z,999.5
2022-11-09T01:37:10.999Z,999.4
2022-11-09T01:38:14.196Z,999.5
2022-11-09T01:39:17.100Z,999.4
2022-11-09T01:40:21.203Z,999.5
2022-11-09T01:41:23.918Z,999.5
2022-11-09T01:42:27.579Z,999.5
2022-11-09T01:43:30.099Z,999.4
2022-11-09T01:44:33.113Z,999.4
2022-11-09T01:45:36.380Z,999.4
2022-11-09T01:46:39.806Z,999.4
2022-11-09T01:47:42.906Z,999.3
2022-11-09T01:48:46.363Z,999.4
2022-11-09T01:49:49.710Z,999.4
2022-11-09T01:50:52.155Z,999.4
2022-11-09T01:51:54.989Z,999.4
2022-11-09T01:52:58.112Z,999.4
2022-11-09T01:54:00.380Z,999.4
2022-11-09T01:55:03.685Z,999.3
2022-11-09T01:56:07.145Z,999.3
2022-11-09T01:57:10.598Z,999.4
2022-11-09T01:58:13.690Z,999.3
2022-11-09T01:59:16.567Z,999.2
2022-11-09T02:00:19.659Z,999.2
2022-11-09T02:01:23.051Z,999.2
2022-11-09T02:02:26.877Z,999.2
2022-11-09T02:03:30.615Z,999.2
2022-11-09T02:04:33.687Z,999.2
2022-11-09T02:05:36.402Z,999.2
2022-11-09T02:06:38.987Z,999.2
2022-11-09T02:07:42.486Z,999.2
2022-11-09T02:08:44.915Z,999.2
2022-11-09T02:09:47.995Z,999.2
2022-11-09T02:10:51.010Z,999.1
2022-11-09T02:11:53.930Z,999.2
2022-11-09T02:12:56.153Z,999.1
2022-11-09T02:13:59.316Z,999.2
2022-11-09T02:15:01.916Z,999.1
2022-11-09T02:16:05.177Z,999.2
2022-11-09T02:17:08.347Z,999.2
2022-11-09T02:18:10.857Z,999.1
2022-11-09T02:19:14.678Z,999.2
2022-11-09T02:20:18.455Z,999.2
2022-11-09T02:21:21.537Z,999.2
2022-11-09T02:22:24.360Z,999.1
2022-11-09T02:23:27.558Z,999.2
2022-11-09T02:24:30.159Z,999.2
2022-11-09T02:25:32.899Z,999.1
2022-11-09T02:26:36.294Z,999.1
2022-11-09T02:27:39.158Z,999.1
2022-11-09T02:28:41.952Z,999.1
2022-11-09T02:29:45.399Z,999.1
2022-11-09T02:30:48.006Z,999.1
2022-11-09T02:31:51.169Z,999.2
2022-11-09T02:32:54.918Z,999.1
2022-11-09T02:33:58.103Z,999.1
2022-11-09T02:35:01.265Z,999.1
2022-11-09T02:36:03.980Z,999.1
2022-11-09T02:37:06.879Z,999.1
2022-11-09T02:38:10.229Z,999.1
2022-11-09T02:39:12.858Z,999.1
2022-11-09T02:40:15.676Z,999.1
2022-11-09T02:41:18.898Z,999.1
2022-11-09T02:42:22.487Z,999.1
2022-11-09T02:43:25.211Z,999.1
2022-11-09T02:44:28.002Z,999.1
2022-11-09T02:45:31.429Z,999.1
2022-11-09T02:46:34.704Z,999.1
2022-11-09T02:47:37.531Z,999.1
2022-11-09T02:48:41.377Z,999.1
2022-11-09T02:49:43.815Z,999.1
2022-11-09T02:50:47.120Z,999.1
2022-11-09T02:51:50.395Z,999.1
2022-11-09T02:52:53.387Z,999.1
2022-11-09T02:53:55.705Z,999.1
2022-11-09T02:54:58.802Z,999.1
2022-11-09T02:56:02.150Z,999.1
2022-11-09T02:57:05.662Z,999.1
2022-11-09T02:58:08.752Z,999.1
2022-11-09T02:59:11.853Z,999.1
2022-11-09T03:00:14.479Z,999.1
2022-11-09T03:01:17.835Z,999.1
2022-11-09T03:02:21.056Z,999.1
2022-11-09T03:03:24.357Z,999.1
2022-11-09T03:04:27.547Z,999.1
2022-11-09T03:05:30.346Z,999.1
2022-11-09T03:06:33.536Z,999.1
2022-11-09T03:07:37.772Z,999.2
2022-11-09T03:08:40.671Z,999.2
2022-11-09T03:09:43.575Z,999.1
2022-11-09T03:10:46.679Z,999.1
2022-11-09T03:11:49.474Z,999.1
2022-11-09T03:12:52.492Z,999.1
2022-11-09T03:13:55.324Z,999.1
2022-11-09T03:14:58.300Z,999.1
2022-11-09T03:16:01.396Z,999.1
2022-11-09T03:17:03.855Z,999.1
2022-11-09T03:18:06.741Z,999
2022-11-09T03:19:09.756Z,999.1
2022-11-09T03:20:12.431Z,999.1
2022-11-09T03:21:15.708Z,999
2022-11-09T03:22:18.526Z,999.1
2022-11-09T03:23:21.824Z,999.1
2022-11-09T03:24:25.214Z,999.1
2022-11-09T03:25:28.311Z,999.1
2022-11-09T03:26:30.847Z,999.1
2022-11-09T03:27:33.640Z,999.1
2022-11-09T03:28:36.944Z,999.1
2022-11-09T03:29:39.468Z,999.2
2022-11-09T03:30:42.196Z,999.1
2022-11-09T03:31:45.633Z,999.2
2022-11-09T03:32:51.010Z,999.2
2022-11-09T03:33:54.453Z,999.2
2022-11-09T03:34:58.139Z,999.2
2022-11-09T03:36:00.963Z,999.2
2022-11-09T03:37:04.266Z,999.2
2022-11-09T03:38:08.019Z,999.2
2022-11-09T03:39:12.076Z,999.2
2022-11-09T03:40:14.892Z,999.2
2022-11-09T03:41:17.967Z,999.2
2022-11-09T03:42:20.509Z,999.2
2022-11-09T03:43:24.089Z,999.2
2022-11-09T03:44:26.963Z,999.2
2022-11-09T03:45:30.037Z,999.2
2022-11-09T03:46:33.041Z,999.2
2022-11-09T03:47:36.113Z,999.2
2022-11-09T03:48:39.195Z,999.2
2022-11-09T03:49:42.473Z,999.2
2022-11-09T03:50:45.015Z,999.2
2022-11-09T03:51:48.201Z,999.2
2022-11-09T03:52:51.282Z,999.2
2022-11-09T03:53:54.949Z,999.2
2022-11-09T03:54:58.031Z,999.2
2022-11-09T03:56:01.466Z,999.2
2022-11-09T03:57:04.264Z,999.2
2022-11-09T03:58:07.459Z,999.2
2022-11-09T03:59:10.519Z,999.3
2022-11-09T04:00:13.501Z,999.3
2022-11-09T04:01:16.633Z,999.3
2022-11-09T04:02:19.978Z,999.3
2022-11-09T04:03:23.651Z,999.3
2022-11-09T04:04:26.462Z,999.3
2022-11-09T04:05:28.698Z,999.3
2022-11-09T04:06:32.277Z,999.3
2022-11-09T04:07:35.765Z,999.3
2022-11-09T04:08:38.590Z,999.3
2022-11-09T04:09:41.798Z,999.3
2022-11-09T04:10:44.950Z,999.3
2022-11-09T04:11:48.415Z,999.2
2022-11-09T04:12:50.845Z,999.3
2022-11-09T04:13:54.484Z,999.2
2022-11-09T04:14:57.968Z,999.3
2022-11-09T04:16:00.780Z,999.3
2022-11-09T04:17:03.950Z,999.3
2022-11-09T04:18:06.422Z,999.3
2022-11-09T04:19:09.692Z,999.3
2022-11-09T04:20:12.778Z,999.3
2022-11-09T04:21:23.647Z,999.3
2022-11-09T04:22:27.032Z,999.2
2022-11-09T04:23:30.764Z,999.2
2022-11-09T04:24:32.931Z,999.2
2022-11-09T04:25:36.378Z,999.2
2022-11-09T04:26:39.664Z,999.2
2022-11-09T04:27:42.472Z,999.2
2022-11-09T04:28:44.445Z,999.2
2022-11-09T04:29:47.572Z,999.2
2022-11-09T04:30:50.657Z,999.2
2022-11-09T04:31:54.392Z,999.2
2022-11-09T04:32:56.962Z,999.2
2022-11-09T04:34:00.069Z,999.2
2022-11-09T04:35:03.869Z,999.2
2022-11-09T04:36:07.231Z,999.2
2022-11-09T04:37:10.022Z,999.2
2022-11-09T04:38:12.479Z,999.3
2022-11-09T04:39:16.009Z,999.3
2022-11-09T04:40:18.449Z,999.3
2022-11-09T04:41:22.182Z,999.3
2022-11-09T04:42:24.430Z,999.3
2022-11-09T04:43:27.586Z,999.3
2022-11-09T04:44:30.581Z,999.3
2022-11-09T04:45:33.245Z,999.3
2022-11-09T04:46:36.388Z,999.3
2022-11-09T04:47:39.473Z,999.2
2022-11-09T04:48:42.856Z,999.2
2022-11-09T04:49:45.473Z,999.3
2022-11-09T04:50:48.911Z,999.3
2022-11-09T04:51:51.142Z,999.3
2022-11-09T04:52:53.977Z,999.3
2022-11-09T04:53:57.372Z,999.3
2022-11-09T04:55:00.908Z,999.3
2022-11-09T04:56:03.910Z,999.3
2022-11-09T04:57:06.563Z,999.3
2022-11-09T04:58:08.807Z,999.2
2022-11-09T04:59:11.872Z,999.2
2022-11-09T05:00:15.396Z,999.2
2022-11-09T05:01:18.160Z,999.2
2022-11-09T05:02:20.979Z,999.2
2022-11-09T05:03:24.940Z,999.2
2022-11-09T05:04:28.648Z,999.2
2022-11-09T05:05:31.845Z,999.2
2022-11-09T05:06:35.491Z,999.2
2022-11-09T05:07:38.458Z,999.1
2022-11-09T05:08:41.174Z,999.2
2022-11-09T05:09:44.924Z,999.2
2022-11-09T05:10:48.383Z,999.1
2022-11-09T05:11:51.179Z,999.1
2022-11-09T05:12:54.889Z,999.1
2022-11-09T05:13:57.613Z,999.1
2022-11-09T05:15:00.764Z,999.1
2022-11-09T05:16:03.472Z,999.1
2022-11-09T05:17:06.098Z,999.1
2022-11-09T05:18:08.886Z,999
2022-11-09T05:19:12.723Z,999.1
2022-11-09T05:20:15.930Z,999.1
2022-11-09T05:21:18.743Z,999.1
2022-11-09T05:22:21.784Z,999.1
2022-11-09T05:23:25.294Z,999.1
2022-11-09T05:24:27.792Z,999.1
2022-11-09T05:25:30.610Z,999.1
2022-11-09T05:26:33.779Z,999.1
2022-11-09T05:27:36.732Z,999.1
2022-11-09T05:28:39.265Z,999.1
2022-11-09T05:29:42.422Z,999.1
2022-11-09T05:30:45.338Z,999.1
2022-11-09T05:31:52.961Z,999.1
2022-11-09T05:32:55.518Z,999.1
2022-11-09T05:33:58.322Z,999.1
2022-11-09T05:35:01.561Z,999.1
2022-11-09T05:36:04.038Z,999.1
2022-11-09T05:37:06.942Z,999.1
2022-11-09T05:38:09.376Z,999.1
2022-11-09T05:39:12.900Z,999.1
2022-11-09T05:40:16.252Z,999.1
2022-11-09T05:41:19.552Z,999.1
2022-11-09T05:42:22.098Z,999.1
2022-11-09T05:43:24.617Z,999.2
2022-11-09T05:44:27.544Z,999.2
2022-11-09T05:45:45.956Z,999.2
2022-11-09T05:46:49.347Z,999.2
2022-11-09T05:47:52.699Z,999.2
2022-11-09T05:48:55.722Z,999.3
2022-11-09T05:49:58.870Z,999.2
2022-11-09T05:51:02.164Z,999.3
2022-11-09T05:52:05.343Z,999.2
2022-11-09T05:53:08.810Z,999.2
2022-11-09T05:54:11.136Z,999.2
2022-11-09T05:55:13.569Z,999.3
2022-11-09T05:56:17.021Z,999.2
2022-11-09T05:57:19.823Z,999.3
2022-11-09T05:58:23.312Z,999.3
2022-11-09T05:59:27.103Z,999.3
2022-11-09T06:00:30.562Z,999.3
2022-11-09T06:01:33.705Z,999.2
2022-11-09T06:02:36.609Z,999.3
2022-11-09T06:03:40.197Z,999.2
2022-11-09T06:04:43.450Z,999.3
2022-11-09T06:05:46.803Z,999.2
2022-11-09T06:06:49.511Z,999.2
2022-11-09T06:07:52.705Z,999.3
2022-11-09T06:08:55.736Z,999.2
2022-11-09T06:09:57.896Z,999.3
2022-11-09T06:11:01.067Z,999.3
2022-11-09T06:12:03.871Z,999.3
2022-11-09T06:13:06.330Z,999.3
2022-11-09T06:14:09.800Z,999.3
2022-11-09T06:15:13.076Z,999.3
2022-11-09T06:16:16.796Z,999.3
2022-11-09T06:17:19.989Z,999.2
2022-11-09T06:18:22.799Z,999.2
2022-11-09T06:19:26.212Z,999.2
2022-11-09T06:20:29.282Z,999.3
2022-11-09T06:21:32.342Z,999.3
2022-11-09T06:22:35.087Z,999.2
2022-11-09T06:23:37.556Z,999.3
2022-11-09T06:24:40.382Z,999.3
2022-11-09T06:25:44.031Z,999.3
2022-11-09T06:26:47.556Z,999.3
2022-11-09T06:27:51.291Z,999.3
2022-11-09T06:28:54.737Z,999.3
2022-11-09T06:29:58.474Z,999.3
2022-11-09T06:31:01.292Z,999.3
2022-11-09T06:32:04.948Z,999.3
2022-11-09T06:33:08.296Z,999.3
2022-11-09T06:34:11.079Z,999.3
2022-11-09T06:35:13.666Z,999.4
2022-11-09T06:36:16.757Z,999.4
2022-11-09T06:37:20.187Z,999.4
2022-11-09T06:38:23.234Z,999.4
2022-11-09T06:39:26.986Z,999.4
2022-11-09T06:40:29.822Z,999.4
2022-11-09T06:41:32.767Z,999.4
2022-11-09T06:42:35.550Z,999.5
2022-11-09T06:43:39.220Z,999.4
2022-11-09T06:44:42.033Z,999.4
2022-11-09T06:45:45.211Z,999.4
2022-11-09T06:46:48.285Z,999.5
2022-11-09T06:47:51.735Z,999.5
2022-11-09T06:48:55.024Z,999.5
2022-11-09T06:49:58.250Z,999.5
2022-11-09T06:51:01.125Z,999.6
2022-11-09T06:52:03.202Z,999.6
2022-11-09T06:53:06.373Z,999.6
2022-11-09T06:54:08.828Z,999.6
2022-11-09T06:55:12.574Z,999.6
2022-11-09T06:56:15.954Z,999.5
2022-11-09T06:57:19.101Z,999.5
2022-11-09T06:58:22.172Z,999.5
2022-11-09T06:59:25.703Z,999.5
2022-11-09T07:00:29.064Z,999.5
2022-11-09T07:01:33.031Z,999.5
2022-11-09T07:02:36.221Z,999.5
2022-11-09T07:03:39.599Z,999.6
2022-11-09T07:04:42.117Z,999.6
2022-11-09T07:05:45.582Z,999.6
2022-11-09T07:06:48.838Z,999.6
2022-11-09T07:07:53.017Z,999.6
2022-11-09T07:08:56.127Z,999.6
2022-11-09T07:09:58.851Z,999.6
2022-11-09T07:11:01.870Z,999.6
2022-11-09T07:12:04.981Z,999.6
2022-11-09T07:13:08.153Z,999.6
2022-11-09T07:14:11.776Z,999.6
2022-11-09T07:15:15.302Z,999.6
2022-11-09T07:16:18.989Z,999.6
2022-11-09T07:17:22.177Z,999.6
2022-11-09T07:18:25.538Z,999.6
2022-11-09T07:19:28.905Z,999.6
2022-11-09T07:20:31.945Z,999.6
2022-11-09T07:21:34.848Z,999.6
2022-11-09T07:22:38.012Z,999.6
2022-11-09T07:23:41.471Z,999.7
2022-11-09T07:24:44.851Z,999.7
2022-11-09T07:25:48.617Z,999.7
2022-11-09T07:26:51.487Z,999.7
2022-11-09T07:27:55.416Z,999.7
2022-11-09T07:28:58.420Z,999.7
2022-11-09T07:30:01.673Z,999.7
2022-11-09T07:31:05.055Z,999.8
2022-11-09T07:32:08.242Z,999.8
2022-11-09T07:33:10.968Z,999.8
2022-11-09T07:34:14.136Z,999.8
2022-11-09T07:35:17.388Z,999.8
2022-11-09T07:36:22.303Z,999.8
2022-11-09T07:37:25.031Z,999.8
2022-11-09T07:38:27.909Z,999.9
2022-11-09T07:39:30.995Z,999.9
2022-11-09T07:40:34.713Z,999.9
2022-11-09T07:41:37.455Z,999.8
2022-11-09T07:42:40.648Z,999.8
2022-11-09T07:43:43.792Z,999.8
2022-11-09T07:44:46.509Z,999.8
2022-11-09T07:45:50.153Z,999.9
2022-11-09T07:46:52.865Z,999.9
2022-11-09T07:47:55.767Z,999.9
2022-11-09T07:48:58.857Z,999.9
2022-11-09T07:50:01.455Z,999.9
2022-11-09T07:51:05.147Z,999.9
2022-11-09T07:52:07.953Z,999.9
2022-11-09T07:53:11.335Z,999.9
2022-11-09T07:54:14.219Z,999.9
2022-11-09T07:55:17.488Z,999.9
2022-11-09T07:56:20.867Z,999.9
2022-11-09T07:57:24.424Z,999.9
2022-11-09T07:58:27.490Z,999.9
2022-11-09T07:59:30.233Z,999.9
2022-11-09T08:00:33.982Z,1000
2022-11-09T08:01:37.562Z,1000
2022-11-09T08:02:41.190Z,1000
2022-11-09T08:03:44.675Z,1000
2022-11-09T08:04:48.142Z,999.9
2022-11-09T08:05:50.972Z,1000
2022-11-09T08:06:54.833Z,1000
2022-11-09T08:07:58.574Z,1000
2022-11-09T08:09:01.366Z,1000
2022-11-09T08:10:03.888Z,1000
2022-11-09T08:11:06.472Z,1000
2022-11-09T08:12:09.826Z,1000
2022-11-09T08:13:13.191Z,1000
2022-11-09T08:14:16.865Z,1000
2022-11-09T08:15:20.323Z,1000.1
2022-11-09T08:16:23.664Z,1000.1
2022-11-09T08:17:26.812Z,1000.1
2022-11-09T08:18:31.446Z,1000
2022-11-09T08:19:34.812Z,1000.1
2022-11-09T08:20:38.535Z,1000.1
2022-11-09T08:21:41.325Z,1000.1
2022-11-09T08:22:44.194Z,1000.1
2022-11-09T08:23:47.618Z,1000.1
2022-11-09T08:24:50.707Z,1000.2
2022-11-09T08:25:53.851Z,1000.1
2022-11-09T08:26:57.052Z,1000.1
2022-11-09T08:28:00.504Z,1000.1
2022-11-09T08:29:03.280Z,1000.1
2022-11-09T08:30:06.800Z,1000.1
2022-11-09T08:31:09.647Z,1000.1
2022-11-09T08:32:12.737Z,1000.1
2022-11-09T08:33:16.126Z,1000.1
2022-11-09T08:34:19.484Z,1000.1
2022-11-09T08:35:22.033Z,1000
2022-11-09T08:36:25.689Z,1000.1
2022-11-09T08:37:29.071Z,1000
2022-11-09T08:38:32.729Z,1000.1
2022-11-09T08:39:35.529Z,1000
2022-11-09T08:40:38.807Z,1000
2022-11-09T08:41:41.987Z,1000
2022-11-09T08:42:45.474Z,999.9
2022-11-09T08:43:49.229Z,1000
2022-11-09T08:44:52.133Z,1000
2022-11-09T08:45:55.506Z,1000
2022-11-09T08:46:58.536Z,1000
2022-11-09T08:48:01.681Z,1000
2022-11-09T08:49:05.117Z,1000
2022-11-09T08:50:08.199Z,999.9
2022-11-09T08:51:11.964Z,999.9
2022-11-09T08:52:15.704Z,1000
2022-11-09T08:53:18.782Z,1000
2022-11-09T08:54:22.498Z,1000
2022-11-09T08:55:25.303Z,999.9
2022-11-09T08:56:27.747Z,1000
2022-11-09T08:57:30.806Z,999.9
2022-11-09T08:58:33.687Z,999.9
2022-11-09T08:59:36.285Z,999.9
2022-11-09T09:00:38.822Z,1000
2022-11-09T09:01:42.150Z,999.9
2022-11-09T09:02:45.662Z,999.9
2022-11-09T09:03:48.492Z,999.9
2022-11-09T09:04:51.013Z,1000
2022-11-09T09:05:53.535Z,1000
2022-11-09T09:06:57.493Z,1000
2022-11-09T09:08:01.297Z,1000
2022-11-09T09:09:04.384Z,1000
2022-11-09T09:10:07.292Z,1000
2022-11-09T09:11:10.545Z,1000
2022-11-09T09:12:13.519Z,1000
2022-11-09T09:13:16.895Z,1000
2022-11-09T09:14:19.760Z,1000
2022-11-09T09:15:23.035Z,1000.1
2022-11-09T09:16:26.165Z,1000
2022-11-09T09:17:28.440Z,1000.1
2022-11-09T09:18:31.629Z,1000.1
2022-11-09T09:19:35.712Z,1000
2022-11-09T09:20:38.626Z,1000.1
2022-11-09T09:21:42.397Z,1000.1
2022-11-09T09:22:45.501Z,1000.2
2022-11-09T09:23:48.714Z,1000.2
2022-11-09T09:24:51.593Z,1000.2
2022-11-09T09:25:59.257Z,1000.2
2022-11-09T09:27:02.633Z,1000.2
2022-11-09T09:28:05.977Z,1000.2
2022-11-09T09:29:08.855Z,1000.2
2022-11-09T09:30:12.683Z,1000.2
2022-11-09T09:31:19.291Z,1000.2
2022-11-09T09:32:22.766Z,1000.2
2022-11-09T09:33:25.858Z,1000.3
2022-11-09T09:34:28.421Z,1000.2
2022-11-09T09:35:32.075Z,1000.2
2022-11-09T09:36:34.517Z,1000.2
2022-11-09T09:37:37.522Z,1000.3
2022-11-09T09:38:40.751Z,1000.3
2022-11-09T09:39:43.943Z,1000.3
2022-11-09T09:40:47.414Z,1000.3
2022-11-09T09:41:50.324Z,1000.4
2022-11-09T09:42:54.216Z,1000.4
2022-11-09T09:43:57.293Z,1000.4
2022-11-09T09:45:00.572Z,1000.4
2022-11-09T09:46:04.082Z,1000.3
2022-11-09T09:47:07.813Z,1000.3
2022-11-09T09:48:10.531Z,1000.3
2022-11-09T09:49:13.715Z,1000.3
2022-11-09T09:50:16.625Z,1000.3
2022-11-09T09:51:20.053Z,1000.3
2022-11-09T09:52:23.184Z,1000.3
2022-11-09T09:53:26.019Z,1000.3
2022-11-09T09:54:29.694Z,1000.4
2022-11-09T09:55:33.158Z,1000.3
2022-11-09T09:56:36.404Z,1000.3
2022-11-09T09:57:42.634Z,1000.4
2022-11-09T09:58:45.727Z,1000.4
2022-11-09T09:59:49.075Z,1000.4
2022-11-09T10:00:52.025Z,1000.5
2022-11-09T10:01:55.149Z,1000.4
2022-11-09T10:02:58.872Z,1000.4
2022-11-09T10:04:02.746Z,1000.4
2022-11-09T10:05:06.382Z,1000.4
2022-11-09T10:06:09.559Z,1000.4
2022-11-09T10:07:12.585Z,1000.4
2022-11-09T10:08:16.076Z,1000.4
2022-11-09T10:09:18.745Z,1000.4
2022-11-09T10:10:21.826Z,1000.4
2022-11-09T10:11:24.935Z,1000.3
2022-11-09T10:12:28.572Z,1000.4
2022-11-09T10:13:32.049Z,1000.4
2022-11-09T10:14:34.610Z,1000.5
2022-11-09T10:15:38.068Z,1000.4
2022-11-09T10:16:40.795Z,1000.5
2022-11-09T10:17:44.284Z,1000.5
2022-11-09T10:18:47.572Z,1000.5
2022-11-09T10:19:50.767Z,1000.4
2022-11-09T10:20:54.004Z,1000.5
2022-11-09T10:21:57.120Z,1000.5
2022-11-09T10:22:59.920Z,1000.4
2022-11-09T10:24:02.795Z,1000.5
2022-11-09T10:26:02.851Z,1000.4
2022-11-09T10:27:18.459Z,1000.4
2022-11-09T10:28:21.426Z,1000.5
2022-11-09T10:29:26.551Z,1000.4
2022-11-09T10:30:30.276Z,1000.4
2022-11-09T10:31:33.838Z,1000.4
2022-11-09T10:32:37.525Z,1000.4
2022-11-09T10:33:39.724Z,1000.3
2022-11-09T10:34:42.865Z,1000.3
2022-11-09T10:35:45.615Z,1000.3
2022-11-09T10:36:47.870Z,1000.3
2022-11-09T10:37:51.231Z,1000.4
2022-11-09T10:38:54.684Z,1000.4
2022-11-09T10:39:57.785Z,1000.4
2022-11-09T10:41:01.159Z,1000.4
2022-11-09T10:42:03.964Z,1000.4
2022-11-09T10:43:08.003Z,1000.4
2022-11-09T10:44:17.737Z,1000.4
2022-11-09T10:45:21.396Z,1000.4
2022-11-09T10:46:24.491Z,1000.3
2022-11-09T10:47:27.559Z,1000.3
2022-11-09T10:48:30.658Z,1000.4
2022-11-09T10:49:34.427Z,1000.3
2022-11-09T10:50:37.601Z,1000.3
2022-11-09T10:51:40.973Z,1000.4
2022-11-09T10:52:48.113Z,1000.3
2022-11-09T10:53:51.309Z,1000.2
2022-11-09T10:54:54.411Z,1000.3
2022-11-09T10:55:57.217Z,1000.3
2022-11-09T10:57:07.163Z,1000.3
2022-11-09T10:58:10.649Z,1000.3
2022-11-09T10:59:14.101Z,1000.3
2022-11-09T11:00:16.848Z,1000.2
2022-11-09T11:01:21.167Z,1000.2
2022-11-09T11:02:25.166Z,1000.3
2022-11-09T11:03:28.407Z,1000.2
2022-11-09T11:04:31.469Z,1000.1
2022-11-09T11:05:34.553Z,1000.1
2022-11-09T11:06:37.781Z,1000.1
2022-11-09T11:07:41.837Z,1000.2
2022-11-09T11:08:45.057Z,1000.1
2022-11-09T11:09:48.812Z,1000.1
2022-11-09T11:11:31.942Z,1000.1
2022-11-09T11:12:41.005Z,1000.1
2022-11-09T11:13:44.417Z,1000.1
2022-11-09T11:14:48.064Z,1000.1
2022-11-09T11:15:50.863Z,1000
2022-11-09T11:16:54.178Z,1000.1
2022-11-09T11:17:56.620Z,1000.1
2022-11-09T11:18:59.530Z,1000.1
2022-11-09T11:20:02.799Z,1000
2022-11-09T11:21:06.285Z,1000
2022-11-09T11:22:09.557Z,1000
2022-11-09T11:23:13.421Z,1000
2022-11-09T11:24:16.443Z,1000.1
2022-11-09T11:25:19.617Z,1000
2022-11-09T11:26:22.719Z,1000.1
2022-11-09T11:27:26.091Z,1000.1
2022-11-09T11:28:29.490Z,1000.1
2022-11-09T11:29:32.357Z,1000.1
2022-11-09T11:30:35.750Z,1000.1
2022-11-09T11:31:38.907Z,1000.1
2022-11-09T11:32:50.816Z,1000
2022-11-09T11:33:54.468Z,1000.1
2022-11-09T11:35:02.062Z,1000.2
2022-11-09T11:36:05.346Z,1000.1
2022-11-09T11:37:08.469Z,1000.1
2022-11-09T11:38:12.169Z,1000.2
2022-11-09T11:39:14.982Z,1000.2
2022-11-09T11:40:17.187Z,1000.3
2022-11-09T11:41:21.096Z,1000.3
2022-11-09T11:42:24.819Z,1000.2
2022-11-09T11:43:28.191Z,1000.2
2022-11-09T11:44:31.107Z,1000.2
2022-11-09T11:45:42.189Z,1000.2
2022-11-09T11:46:44.932Z,1000.2
2022-11-09T11:47:48.719Z,1000.2
2022-11-09T11:48:51.639Z,1000.2
2022-11-09T11:49:54.518Z,1000.3
2022-11-09T11:50:57.990Z,1000.2
2022-11-09T11:52:01.346Z,1000.2
2022-11-09T11:53:04.713Z,1000.2
2022-11-09T11:54:08.056Z,1000.2
2022-11-09T11:55:10.919Z,1000.2
2022-11-09T11:56:14.026Z,1000.2
2022-11-09T11:57:17.505Z,1000.2
2022-11-09T11:58:20.950Z,1000.3
2022-11-09T11:59:24.207Z,1000.2
2022-11-09T12:00:27.205Z,1000.2
2022-11-09T12:01:30.064Z,1000.2
2022-11-09T12:02:32.727Z,1000.2
2022-11-09T12:03:36.149Z,1000.3
2022-11-09T12:04:39.587Z,1000.3
2022-11-09T12:05:42.947Z,1000.2
2022-11-09T12:06:46.548Z,1000.3
2022-11-09T12:07:57.031Z,1000.3
2022-11-09T12:09:00.564Z,1000.3
2022-11-09T12:10:03.441Z,1000.3
2022-11-09T12:11:06.902Z,1000.3
2022-11-09T12:12:10.194Z,1000.3
2022-11-09T12:13:13.096Z,1000.3
2022-11-09T12:14:15.622Z,1000.3
2022-11-09T12:15:18.802Z,1000.3
2022-11-09T12:16:21.692Z,1000.3
2022-11-09T12:17:25.541Z,1000.2
2022-11-09T12:18:28.898Z,1000.2
2022-11-09T12:19:36.254Z,1000.2
2022-11-09T12:20:39.630Z,1000.2
2022-11-09T12:21:42.528Z,1000.2
2022-11-09T12:22:45.631Z,1000.2
2022-11-09T12:23:48.432Z,1000.2
2022-11-09T12:24:52.205Z,1000.2
2022-11-09T12:25:55.007Z,1000.2
2022-11-09T12:27:31.378Z,1000.3
2022-11-09T12:28:36.143Z,1000.2
2022-11-09T12:29:39.278Z,1000.2
2022-11-09T12:30:42.114Z,1000.2
2022-11-09T12:31:45.283Z,1000.3
2022-11-09T12:32:48.783Z,1000.2
2022-11-09T12:33:51.660Z,1000.3
2022-11-09T12:34:54.261Z,1000.3
2022-11-09T12:35:57.331Z,1000.2
2022-11-09T12:37:01.073Z,1000.2
2022-11-09T12:38:05.152Z,1000.2
2022-11-09T12:39:07.858Z,1000.2
2022-11-09T12:40:11.523Z,1000.2
2022-11-09T12:41:14.721Z,1000.2
2022-11-09T12:42:17.829Z,1000.2
2022-11-09T12:43:21.567Z,1000.2
2022-11-09T12:44:26.882Z,1000.2
2022-11-09T12:45:30.032Z,1000.1
2022-11-09T12:46:32.877Z,1000.1
2022-11-09T12:47:35.410Z,1000.2
2022-11-09T12:48:38.916Z,1000.1
2022-11-09T12:49:42.109Z,1000.1
2022-11-09T12:50:46.178Z,1000.1
2022-11-09T12:51:49.649Z,1000.1
2022-11-09T12:53:01.187Z,1000.1
2022-11-09T12:54:03.808Z,1000.1
2022-11-09T12:55:06.810Z,1000.2
2022-11-09T12:56:09.552Z,1000.1
2022-11-09T12:57:13.256Z,1000.1
2022-11-09T12:58:16.165Z,1000.1
2022-11-09T12:59:18.792Z,1000.2
2022-11-09T13:00:21.625Z,1000.2
2022-11-09T13:01:24.611Z,1000.2
2022-11-09T13:02:28.249Z,1000.1
2022-11-09T13:03:31.355Z,1000.1
2022-11-09T13:04:34.463Z,1000.1
2022-11-09T13:05:38.221Z,1000.2
2022-11-09T13:06:41.654Z,1000.1
2022-11-09T13:07:44.741Z,1000.2
2022-11-09T13:08:48.117Z,1000.2
2022-11-09T13:09:51.177Z,1000.2
2022-11-09T13:10:54.341Z,1000.1
2022-11-09T13:11:57.921Z,1000.1
2022-11-09T13:13:01.271Z,1000.3
2022-11-09T13:14:04.296Z,1000.2
2022-11-09T13:15:07.598Z,1000.2
2022-11-09T13:16:10.831Z,1000.2
2022-11-09T13:17:14.435Z,1000.2
2022-11-09T13:18:16.964Z,1000.2
2022-11-09T13:19:20.415Z,1000.1
2022-11-09T13:20:55.752Z,1000.1
2022-11-09T13:22:01.868Z,1000.1
2022-11-09T13:23:05.416Z,1000.1
2022-11-09T13:24:16.256Z,1000.1
2022-11-09T13:25:27.892Z,1000.2
2022-11-09T13:26:31.255Z,1000.1
2022-11-09T13:27:33.629Z,1000.1
2022-11-09T13:28:36.057Z,1000.1
2022-11-09T13:29:39.426Z,1000.1
2022-11-09T13:30:42.817Z,1000.1
2022-11-09T13:31:45.955Z,1000.2